createdAt,value
2022-11-10T00:01:27.447Z,19.62
2022-11-10T00:06:50.888Z,19.71
2022-11-10T00:12:12.931Z,19.70
2022-11-10T00:17:36.606Z,19.57
2022-11-10T00:23:00.314Z,19.24
2022-11-10T00:28:22.555Z,19.13
2022-11-10T00:33:45.795Z,19.23
2022-11-10T00:39:09.804Z,18.78
2022-11-10T00:44:32.244Z,18.98
2022-11-10T00:49:54.253Z,19.29
2022-11-10T00:55:17.840Z,19.18
2022-11-10T01:00:39.637Z,19.15
2022-11-10T01:06:06.044Z,19.17
2022-11-10T01:11:29.653Z,19.14
2022-11-10T01:16:51.861Z,18.91
2022-11-10T01:22:13.757Z,18.81
2022-11-10T01:27:37.183Z,19.06
2022-11-10T01:32:59.086Z,19.00
2022-11-10T01:38:20.997Z,19.10
2022-11-10T01:43:44.433Z,18.94
2022-11-10T01:49:06.738Z,18.95
2022-11-10T01:54:30.684Z,18.65
2022-11-10T01:59:53.859Z,18.65
2022-11-10T02:05:15.778Z,18.55
2022-11-10T02:10:37.830Z,18.51
2022-11-10T02:16:01.667Z,18.47
2022-11-10T02:21:24.967Z,18.15
2022-11-10T02:26:49.996Z,18.31
2022-11-10T02:32:11.945Z,18.46
2022-11-10T02:37:35.075Z,18.43
2022-11-10T02:42:56.844Z,18.48
2022-11-10T02:48:20.110Z,18.37
2022-11-10T02:53:43.769Z,18.16
2022-11-10T02:59:05.858Z,18.24
2022-11-10T03:04:27.906Z,18.06
2022-11-10T03:09:51.445Z,18.02
2022-11-10T03:15:14.486Z,17.95
2022-11-10T03:20:36.628Z,17.91
2022-11-10T03:25:59.961Z,17.86
2022-11-10T03:31:21.959Z,17.75
2022-11-10T03:36:43.963Z,17.74
2022-11-10T03:42:07.257Z,17.88
2022-11-10T03:47:29.214Z,17.76
2022-11-10T03:52:51.110Z,17.80
2022-11-10T03:58:14.569Z,17.56
2022-11-10T04:03:36.239Z,17.51
2022-11-10T04:09:00.808Z,17.36
2022-11-10T04:14:41.516Z,17.45
2022-11-10T04:20:03.868Z,17.48
2022-11-10T04:25:26.229Z,17.24
2022-11-10T04:30:49.441Z,17.30
2022-11-10T04:36:13.140Z,17.14
2022-11-10T04:41:36.609Z,17.18
2022-11-10T04:46:59.896Z,17.27
2022-11-10T04:52:21.849Z,17.19
2022-11-10T04:57:43.986Z,17.22
2022-11-10T05:03:09.203Z,17.24
2022-11-10T05:08:31.065Z,17.39
2022-11-10T05:13:52.989Z,17.31
2022-11-10T05:19:16.324Z,17.18
2022-11-10T05:24:38.238Z,17.13
2022-11-10T05:30:00.207Z,17.22
2022-11-10T05:35:23.860Z,17.08
2022-11-10T05:40:46.116Z,17.34
2022-11-10T05:46:07.981Z,17.41
2022-11-10T05:51:31.361Z,17.28
2022-11-10T05:56:53.361Z,17.25
2022-11-10T06:02:15.335Z,17.54
2022-11-10T06:07:38.929Z,17.60
2022-11-10T06:13:01.412Z,17.49
2022-11-10T06:18:23.661Z,17.68
2022-11-10T06:23:46.858Z,17.47
2022-11-10T06:29:08.720Z,17.39
2022-11-10T06:34:30.613Z,17.54
2022-11-10T06:39:53.831Z,17.27
2022-11-10T06:45:15.908Z,17.36
2022-11-10T06:50:37.819Z,17.54
2022-11-10T06:56:01.069Z,17.75
2022-11-10T07:01:26.381Z,17.64
2022-11-10T07:06:48.875Z,17.59
2022-11-10T07:12:12.247Z,17.61
2022-11-10T07:17:34.052Z,17.59
2022-11-10T07:22:59.197Z,17.77
2022-11-10T07:28:27.310Z,17.78
2022-11-10T07:33:54.355Z,17.97
2022-11-10T07:39:16.719Z,18.14
2022-11-10T07:44:40.065Z,18.22
2022-11-10T07:50:01.952Z,18.12
2022-11-10T07:55:23.769Z,18.50
2022-11-10T08:00:47.987Z,18.52
2022-11-10T08:06:10.269Z,18.77
2022-11-10T08:11:32.172Z,18.69
2022-11-10T08:16:55.743Z,18.37
2022-11-10T08:22:17.717Z,19.14
2022-11-10T08:27:39.699Z,19.31
2022-11-10T08:33:04.870Z,19.35
2022-11-10T08:38:26.751Z,19.35
2022-11-10T08:43:48.815Z,19.51
2022-11-10T08:49:12.433Z,19.52
2022-11-10T08:54:34.518Z,19.62
2022-11-10T08:59:56.545Z,19.46
2022-11-10T09:05:20.068Z,19.86
2022-11-10T09:10:43.295Z,19.75
2022-11-10T09:16:06.455Z,20.00
2022-11-10T09:21:29.805Z,20.01
2022-11-10T09:26:52.482Z,20.13
2022-11-10T09:32:14.591Z,20.04
2022-11-10T09:37:41.099Z,20.42
2022-11-10T09:43:04.478Z,20.02
2022-11-10T09:48:28.600Z,19.86
2022-11-10T09:53:57.220Z,20.41
2022-11-10T09:59:25.900Z,19.77
2022-11-10T10:05:03.150Z,20.12
2022-11-10T10:10:34.081Z,20.42
2022-11-10T10:16:10.329Z,20.51
2022-11-10T10:21:41.942Z,20.32
2022-11-10T10:27:07.472Z,20.48
2022-11-10T10:32:29.885Z,20.94
2022-11-10T10:37:54.210Z,21.20
2022-11-10T10:43:18.099Z,21.43
2022-11-10T10:48:40.280Z,21.45
2022-11-10T10:54:02.137Z,21.48
2022-11-10T10:59:25.491Z,21.81
2022-11-10T11:04:47.367Z,21.58
2022-11-10T11:10:20.482Z,21.45
2022-11-10T11:15:43.958Z,21.82
2022-11-10T11:21:10.622Z,21.69
2022-11-10T11:26:41.089Z,21.41
2022-11-10T11:32:16.459Z,21.77
2022-11-10T11:37:42.815Z,21.86
2022-11-10T11:43:11.208Z,22.42
2022-11-10T11:48:53.039Z,22.70
2022-11-10T11:54:34.157Z,23.24
2022-11-10T12:00:03.468Z,22.58
2022-11-10T12:05:34.204Z,22.47
2022-11-10T12:11:05.488Z,22.29
2022-11-10T12:16:30.395Z,22.85
2022-11-10T12:21:59.040Z,22.94
2022-11-10T12:27:26.430Z,22.91
2022-11-10T12:32:51.532Z,23.02
2022-11-10T12:38:19.148Z,23.22
2022-11-10T12:43:47.134Z,23.48
2022-11-10T12:49:15.413Z,23.54
2022-11-10T12:54:39.902Z,23.81
2022-11-10T13:00:05.371Z,23.66
2022-11-10T13:05:37.767Z,22.96
2022-11-10T13:11:05.626Z,23.42
2022-11-10T13:16:49.408Z,22.96
2022-11-10T13:22:12.701Z,23.19
2022-11-10T13:27:54.929Z,23.29
2022-11-10T13:33:33.664Z,22.59
2022-11-10T13:38:56.578Z,22.38
2022-11-10T13:44:25.329Z,22.58
2022-11-10T13:49:56.763Z,22.79
2022-11-10T13:55:25.616Z,22.69
2022-11-10T14:00:51.964Z,22.60
2022-11-10T14:06:17.802Z,22.71
2022-11-10T14:11:45.710Z,22.61
2022-11-10T14:17:18.389Z,22.78
2022-11-10T14:22:43.334Z,22.70
2022-11-10T14:28:25.993Z,22.57
2022-11-10T14:33:56.586Z,22.18
2022-11-10T14:39:18.852Z,21.97
2022-11-10T14:44:41.305Z,22.16
2022-11-10T14:50:18.981Z,22.13
2022-11-10T14:55:44.684Z,21.53
2022-11-10T15:01:07.986Z,22.05
2022-11-10T15:06:32.267Z,22.02
2022-11-10T15:11:55.825Z,21.86
2022-11-10T15:17:22.278Z,21.81
2022-11-10T15:22:46.132Z,21.44
2022-11-10T15:28:23.153Z,21.50
2022-11-10T15:33:48.197Z,21.30
2022-11-10T15:39:20.268Z,21.29
2022-11-10T15:44:46.239Z,21.35
2022-11-10T15:50:13.092Z,20.94
2022-11-10T15:55:36.732Z,21.03
2022-11-10T16:00:58.764Z,20.86
2022-11-10T16:06:21.241Z,20.74
2022-11-10T16:11:45.400Z,20.59
2022-11-10T16:17:10.145Z,20.32
2022-11-10T16:22:32.622Z,20.25
2022-11-10T16:27:56.085Z,20.26
2022-11-10T16:33:19.320Z,20.28
2022-11-10T16:38:41.402Z,20.28
2022-11-10T16:44:06.456Z,20.11
2022-11-10T16:49:33.368Z,19.98
2022-11-10T16:54:55.820Z,20.05
2022-11-10T17:00:20.397Z,19.86
2022-11-10T17:05:42.617Z,19.97
2022-11-10T17:11:04.873Z,19.60
2022-11-10T17:16:30.211Z,19.83
2022-11-10T17:21:53.794Z,19.92
2022-11-10T17:27:16.792Z,19.73
2022-11-10T17:33:03.745Z,19.87
2022-11-10T17:38:23.856Z,19.46
2022-11-10T17:43:46.249Z,19.55
2022-11-10T17:49:09.806Z,19.49
2022-11-10T17:54:32.086Z,19.44
2022-11-10T18:04:36.197Z,19.21
2022-11-10T18:09:58.490Z,19.27
2022-11-10T18:15:20.617Z,19.24
2022-11-10T18:20:44.617Z,19.24
2022-11-10T18:26:08.634Z,19.16
2022-11-10T18:31:30.809Z,19.19
2022-11-10T18:36:54.212Z,19.33
2022-11-10T18:42:16.477Z,19.38
2022-11-10T18:47:38.596Z,19.28
2022-11-10T18:53:04.017Z,19.21
2022-11-10T18:58:25.868Z,18.99
2022-11-10T19:03:47.698Z,18.87
2022-11-10T19:09:12.482Z,18.93
2022-11-10T19:14:34.829Z,18.65
2022-11-10T19:19:57.048Z,18.95
2022-11-10T19:25:20.893Z,18.72
2022-11-10T19:30:43.215Z,18.46
2022-11-10T19:36:06.427Z,18.20
2022-11-10T19:41:31.307Z,18.43
2022-11-10T19:46:53.546Z,18.37
2022-11-10T19:52:15.590Z,18.33
2022-11-10T19:57:39.269Z,18.39
2022-11-10T20:03:01.483Z,18.21
2022-11-10T20:08:23.416Z,18.09
2022-11-10T20:13:48.833Z,18.30
2022-11-10T20:19:14.390Z,17.96
2022-11-10T20:24:36.791Z,17.88
2022-11-10T20:30:00.468Z,18.14
2022-11-10T20:35:22.569Z,18.00
2022-11-10T20:40:45.306Z,18.13
2022-11-10T20:46:16.150Z,17.86
2022-11-10T20:51:45.033Z,18.01
2022-11-10T20:57:07.249Z,18.14
2022-11-10T21:02:30.728Z,18.17
2022-11-10T21:07:53.142Z,18.31
2022-11-10T21:13:15.374Z,18.17
2022-11-10T21:18:39.082Z,18.10
2022-11-10T21:24:01.322Z,17.75
2022-11-10T21:29:24.666Z,18.05
2022-11-10T21:34:51.842Z,17.97
2022-11-10T21:40:21.035Z,17.95
2022-11-10T21:45:45.047Z,17.83
2022-11-10T21:51:12.519Z,17.76
2022-11-10T21:56:34.785Z,17.69
2022-11-10T22:01:56.996Z,17.83
2022-11-10T22:07:26.621Z,17.79
2022-11-10T22:13:06.266Z,17.86
2022-11-10T22:18:41.320Z,18.03
2022-11-10T22:24:22.845Z,17.88
2022-11-10T22:29:45.265Z,17.94
2022-11-10T22:35:08.211Z,17.82
2022-11-10T22:40:49.359Z,17.99
2022-11-10T22:46:11.591Z,17.78
2022-11-10T22:51:33.753Z,17.77
2022-11-10T22:56:57.636Z,18.05
2022-11-10T23:02:20.089Z,17.80
2022-11-10T23:07:42.420Z,17.45
2022-11-10T23:13:05.947Z,17.49
2022-11-10T23:18:28.215Z,17.71
2022-11-10T23:23:50.771Z,17.73
2022-11-10T23:29:14.534Z,17.83
2022-11-10T23:34:36.929Z,17.60
2022-11-10T23:39:58.785Z,17.69
2022-11-10T23:45:22.264Z,17.70
2022-11-10T23:50:44.774Z,17.64
2022-11-10T23:56:08.717Z,17.48
